Time;durP1;ratioP1;P1;durP2;ratioP2;P2;SDS_P1;SDS_P2;PMS_P1;PMS_P2;Temp;Humidity;BMP_temperature;BMP_pressure;BME280_temperature;BME280_humidity;BME280_pressure;Samples;Min_cycle;Max_cycle;Signal;HPM_P1;HPM_P2
2023/06/27 00:00:45;;;;;;;5.40;3.78;;;14.50;99.90;;;;;;5056984;27;94414;-38
2023/06/27 00:03:11;;;;;;;5.28;3.00;;;14.60;99.90;;;;;;5056914;27;93577;-37
2023/06/27 00:05:38;;;;;;;4.25;3.17;;;14.50;99.90;;;;;;5056984;27;93134;-35
2023/06/27 00:08:05;;;;;;;6.18;3.55;;;14.50;99.90;;;;;;5056095;27;95714;-36
2023/06/27 00:10:30;;;;;;;5.63;3.42;;;14.50;99.90;;;;;;5056981;27;95193;-34
2023/06/27 00:12:56;;;;;;;4.20;3.42;;;14.40;99.90;;;;;;5039041;27;94562;-35
2023/06/27 00:15:22;;;;;;;7.30;3.88;;;14.40;99.90;;;;;;5057032;27;94955;-33
2023/06/27 00:17:48;;;;;;;4.47;3.90;;;14.40;99.90;;;;;;5056491;27;94587;-35
2023/06/27 00:20:14;;;;;;;10.73;4.25;;;14.40;99.90;;;;;;5056157;27;93568;-39
2023/06/27 00:22:40;;;;;;;4.35;3.67;;;14.30;99.90;;;;;;5056946;27;93306;-33
2023/06/27 00:25:11;;;;;;;6.80;4.15;;;14.30;99.90;;;;;;5056823;27;93356;-38
2023/06/27 00:27:38;;;;;;;6.40;3.63;;;14.30;99.90;;;;;;5037151;27;94875;-36
2023/06/27 00:30:04;;;;;;;9.57;3.75;;;14.30;99.90;;;;;;5056438;27;94676;-34
2023/06/27 00:32:30;;;;;;;4.50;4.10;;;14.30;99.90;;;;;;5056720;27;95151;-33
2023/06/27 00:34:55;;;;;;;3.97;3.58;;;14.30;99.90;;;;;;5056162;27;93895;-32
2023/06/27 00:37:21;;;;;;;4.10;3.70;;;14.20;99.90;;;;;;5055872;27;94644;-39
2023/06/27 00:39:47;;;;;;;6.85;3.20;;;14.20;99.90;;;;;;5057314;27;94796;-34
2023/06/27 00:42:12;;;;;;;6.85;4.10;;;14.20;99.90;;;;;;5055876;27;93467;-36
2023/06/27 00:44:38;;;;;;;5.55;3.85;;;14.10;99.90;;;;;;5056505;27;94393;-32
2023/06/27 00:47:04;;;;;;;6.00;4.50;;;14.10;99.90;;;;;;5055476;27;94984;-33
2023/06/27 00:49:30;;;;;;;4.18;3.22;;;14.10;99.90;;;;;;5056131;27;95246;-33
2023/06/27 00:51:56;;;;;;;5.35;4.05;;;14.10;99.90;;;;;;5057131;27;93459;-33
2023/06/27 00:54:23;;;;;;;9.38;4.18;;;14.10;99.90;;;;;;5056193;27;93549;-37
2023/06/27 00:56:53;;;;;;;8.25;4.28;;;14.10;99.90;;;;;;5055423;27;95734;-37
2023/06/27 00:59:19;;;;;;;3.83;3.50;;;14.10;99.90;;;;;;5055474;27;96909;-33
2023/06/27 01:01:45;;;;;;;6.10;4.18;;;14.10;99.90;;;;;;5056289;27;94309;-32
2023/06/27 01:04:11;;;;;;;6.43;3.88;;;14.10;99.90;;;;;;5055527;27;93058;-35
2023/06/27 01:06:40;;;;;;;3.95;3.60;;;14.10;99.90;;;;;;5056355;27;94720;-32
2023/06/27 01:09:14;;;;;;;10.48;3.42;;;14.10;99.90;;;;;;5056059;27;94091;-37
2023/06/27 01:11:47;;;;;;;5.80;3.63;;;14.10;99.90;;;;;;5044332;27;93610;-36
2023/06/27 01:14:16;;;;;;;8.73;3.72;;;14.00;99.90;;;;;;5057020;27;94592;-35
2023/06/27 01:16:46;;;;;;;4.35;3.90;;;14.00;99.90;;;;;;5059712;27;94849;-37
2023/06/27 01:19:13;;;;;;;4.32;3.92;;;14.00;99.90;;;;;;5059194;27;94645;-36
2023/06/27 01:21:40;;;;;;;6.45;4.13;;;14.00;99.90;;;;;;5058751;27;93167;-33
2023/06/27 01:24:07;;;;;;;4.15;3.75;;;13.90;99.90;;;;;;5059221;27;93976;-38
2023/06/27 01:26:34;;;;;;;7.80;4.65;;;13.90;99.90;;;;;;5059727;27;94765;-33
2023/06/27 01:28:59;;;;;;;7.70;4.18;;;13.90;99.90;;;;;;5058498;27;95172;-35
2023/06/27 01:31:38;;;;;;;11.60;5.20;;;13.90;99.90;;;;;;5059807;27;93196;-34
2023/06/27 01:34:12;;;;;;;5.03;4.47;;;13.80;99.90;;;;;;5058647;27;93911;-34
2023/06/27 01:36:50;;;;;;;6.72;4.20;;;13.80;99.90;;;;;;5058866;27;94564;-34
2023/06/27 01:39:21;;;;;;;7.20;4.32;;;13.80;99.90;;;;;;5058965;27;94567;-37
2023/06/27 01:41:51;;;;;;;8.15;4.45;;;13.70;99.90;;;;;;5059348;27;93421;-35
2023/06/27 01:44:19;;;;;;;5.82;4.72;;;13.60;99.90;;;;;;5058288;27;93263;-37
2023/06/27 01:46:46;;;;;;;9.18;4.82;;;13.70;99.90;;;;;;5057944;27;95651;-34
2023/06/27 01:49:12;;;;;;;4.63;3.92;;;13.70;99.90;;;;;;5058019;27;95262;-37
2023/06/27 01:51:40;;;;;;;5.95;3.65;;;13.60;99.90;;;;;;5024175;27;92377;-31
2023/06/27 01:54:05;;;;;;;8.73;4.97;;;13.60;99.90;;;;;;5048392;27;93385;-37
2023/06/27 01:56:31;;;;;;;6.00;3.83;;;13.60;99.90;;;;;;5055080;27;95306;-37
2023/06/27 01:58:57;;;;;;;10.93;5.10;;;13.60;99.90;;;;;;5058958;27;95585;-34
2023/06/27 02:01:22;;;;;;;4.82;3.72;;;13.60;99.90;;;;;;5058475;27;94231;-34
2023/06/27 02:03:48;;;;;;;8.95;4.70;;;13.50;99.90;;;;;;5059288;27;92422;-38
2023/06/27 02:06:15;;;;;;;6.03;4.32;;;13.50;99.90;;;;;;5057604;27;95301;-37
2023/06/27 02:08:41;;;;;;;6.20;4.05;;;13.50;99.90;;;;;;5058215;27;94461;-37
2023/06/27 02:11:07;;;;;;;6.65;3.95;;;13.50;99.90;;;;;;5058533;27;94275;-35
2023/06/27 02:13:37;;;;;;;7.35;4.18;;;13.50;99.90;;;;;;5057900;27;92143;-36
2023/06/27 02:16:03;;;;;;;6.43;4.07;;;13.50;99.90;;;;;;5057449;27;94677;-33
2023/06/27 02:18:29;;;;;;;5.07;3.83;;;13.50;99.90;;;;;;5058319;27;94490;-38
2023/06/27 02:20:55;;;;;;;5.25;4.32;;;13.50;99.90;;;;;;5058843;27;94516;-33
2023/06/27 02:23:21;;;;;;;5.80;4.15;;;13.50;99.90;;;;;;5058031;27;93151;-33
2023/06/27 02:25:47;;;;;;;9.90;4.20;;;13.40;99.90;;;;;;5058455;27;94546;-36
2023/06/27 02:28:12;;;;;;;5.43;4.93;;;13.40;99.90;;;;;;5057396;27;94783;-36
2023/06/27 02:30:38;;;;;;;7.40;4.97;;;13.40;99.90;;;;;;5058682;27;92704;-32
2023/06/27 02:33:04;;;;;;;5.82;4.97;;;13.30;99.90;;;;;;5058445;27;94467;-33
2023/06/27 02:35:29;;;;;;;6.72;4.30;;;13.40;99.90;;;;;;5056376;27;95449;-31
2023/06/27 02:37:55;;;;;;;6.45;4.63;;;13.30;99.90;;;;;;5058322;27;95029;-34
2023/06/27 02:40:21;;;;;;;4.28;3.85;;;13.30;99.90;;;;;;5057370;27;93317;-34
2023/06/27 02:42:47;;;;;;;4.57;4.10;;;13.30;99.90;;;;;;5058384;27;93148;-36
2023/06/27 02:45:13;;;;;;;6.60;4.55;;;13.30;99.90;;;;;;5057888;27;96627;-35
2023/06/27 02:47:39;;;;;;;6.22;4.88;;;13.40;99.90;;;;;;5057834;27;94351;-34
2023/06/27 02:50:05;;;;;;;7.15;4.93;;;13.30;99.90;;;;;;5058409;27;94597;-32
2023/06/27 02:52:31;;;;;;;7.55;5.97;;;13.30;99.90;;;;;;5058592;27;93165;-37
2023/06/27 02:54:56;;;;;;;5.18;4.45;;;13.30;99.90;;;;;;5054058;27;94721;-33
2023/06/27 02:57:22;;;;;;;6.32;4.63;;;13.30;99.90;;;;;;5048041;27;95647;-32
2023/06/27 02:59:48;;;;;;;5.18;4.03;;;13.30;99.90;;;;;;5057343;27;95489;-32
2023/06/27 03:02:13;;;;;;;6.47;5.15;;;13.20;99.90;;;;;;5022396;27;92302;-33
2023/06/27 03:04:39;;;;;;;7.13;5.07;;;13.20;99.90;;;;;;5038127;27;95745;-33
2023/06/27 03:07:05;;;;;;;5.68;4.70;;;13.30;99.90;;;;;;5058010;27;94520;-35
2023/06/27 03:09:32;;;;;;;5.03;4.53;;;13.20;99.90;;;;;;5057933;27;95100;-34
2023/06/27 03:11:58;;;;;;;7.20;4.72;;;13.20;99.90;;;;;;5057528;27;94564;-35
2023/06/27 03:14:24;;;;;;;9.73;4.68;;;13.20;99.90;;;;;;5057330;27;94443;-32
2023/06/27 03:16:49;;;;;;;6.88;4.72;;;13.20;99.90;;;;;;5057419;27;93844;-34
2023/06/27 03:19:15;;;;;;;7.63;5.35;;;13.20;99.90;;;;;;5054239;27;93732;-35
2023/06/27 03:21:40;;;;;;;8.60;5.55;;;13.10;99.90;;;;;;5048272;27;92834;-36
2023/06/27 03:24:06;;;;;;;8.23;5.53;;;13.10;99.90;;;;;;5056056;27;95457;-35
2023/06/27 03:26:32;;;;;;;9.60;4.78;;;13.10;99.90;;;;;;5057743;27;96970;-34
2023/06/27 03:28:58;;;;;;;9.35;5.25;;;13.10;99.90;;;;;;5057208;27;93196;-34
2023/06/27 03:31:24;;;;;;;6.07;5.45;;;13.10;99.90;;;;;;5057174;27;94395;-34
2023/06/27 03:33:52;;;;;;;9.23;6.15;;;13.10;99.90;;;;;;5057407;27;94569;-33
2023/06/27 03:36:18;;;;;;;7.78;5.57;;;13.00;99.90;;;;;;5056226;27;94332;-34
2023/06/27 03:38:45;;;;;;;6.90;5.05;;;13.00;99.90;;;;;;5056820;27;92151;-33
2023/06/27 03:41:11;;;;;;;6.32;5.65;;;13.00;99.90;;;;;;5057550;27;93464;-35
2023/06/27 03:43:36;;;;;;;8.32;5.78;;;13.00;99.90;;;;;;5056499;27;94420;-36
2023/06/27 03:46:02;;;;;;;14.35;7.03;;;13.00;99.90;;;;;;5057498;27;94789;-34
2023/06/27 03:48:28;;;;;;;9.93;7.35;;;13.00;99.90;;;;;;5055899;27;93206;-35
2023/06/27 03:50:53;;;;;;;6.35;5.70;;;13.00;99.90;;;;;;5057261;27;93549;-33
2023/06/27 03:53:19;;;;;;;10.80;6.82;;;13.10;99.90;;;;;;5056667;27;96279;-35
2023/06/27 03:55:45;;;;;;;7.70;5.72;;;13.10;99.90;;;;;;5056901;27;94499;-34
2023/06/27 03:58:10;;;;;;;9.40;6.63;;;13.10;99.90;;;;;;5057065;27;92773;-33
2023/06/27 04:00:37;;;;;;;9.38;6.97;;;13.20;99.90;;;;;;5056474;27;93041;-36
2023/06/27 04:03:03;;;;;;;7.45;6.57;;;13.30;99.90;;;;;;5038040;27;94648;-33
2023/06/27 04:05:29;;;;;;;10.23;6.90;;;13.30;99.90;;;;;;5056994;27;94927;-35
2023/06/27 04:07:54;;;;;;;14.48;7.85;;;13.30;99.90;;;;;;5056848;27;92138;-32
2023/06/27 04:10:20;;;;;;;9.05;6.30;;;13.30;99.90;;;;;;5057094;27;95056;-30
2023/06/27 04:12:45;;;;;;;8.95;7.07;;;13.40;99.90;;;;;;5055582;27;95834;-31
2023/06/27 04:15:11;;;;;;;8.80;6.40;;;13.50;99.90;;;;;;5056478;27;95121;-33
2023/06/27 04:17:37;;;;;;;7.55;6.75;;;13.50;99.90;;;;;;5057045;27;94511;-34
2023/06/27 04:20:03;;;;;;;8.95;7.18;;;13.60;99.90;;;;;;5056930;27;94204;-39
2023/06/27 04:22:28;;;;;;;12.55;7.32;;;13.60;99.90;;;;;;5056366;27;94261;-35
2023/06/27 04:24:54;;;;;;;8.02;7.22;;;13.70;99.90;;;;;;5056339;27;95034;-36
2023/06/27 04:27:19;;;;;;;8.32;7.35;;;13.70;99.90;;;;;;5057065;27;94440;-31
2023/06/27 04:29:45;;;;;;;8.77;7.20;;;13.80;99.90;;;;;;5056342;27;92636;-31
2023/06/27 04:32:11;;;;;;;10.35;6.75;;;13.80;99.90;;;;;;5037854;27;94730;-37
2023/06/27 04:34:36;;;;;;;9.00;6.65;;;13.90;99.90;;;;;;5056202;27;94811;-37
2023/06/27 04:37:05;;;;;;;8.88;6.47;;;14.10;99.90;;;;;;5049511;22;94602;-36
2023/06/27 04:39:31;;;;;;;10.55;7.18;;;14.30;99.90;;;;;;5004691;28;94257;-32
2023/06/27 04:41:57;;;;;;;12.70;6.70;;;14.60;99.90;;;;;;4995142;28;94453;-33
2023/06/27 04:44:23;;;;;;;10.27;6.78;;;14.80;99.90;;;;;;4994950;28;94851;-36
2023/06/27 04:46:49;;;;;;;10.48;7.43;;;15.10;99.90;;;;;;4981900;28;94067;-33
2023/06/27 04:49:14;;;;;;;8.13;6.53;;;15.40;99.90;;;;;;5003607;27;92677;-38
2023/06/27 04:51:40;;;;;;;10.32;5.93;;;15.50;99.90;;;;;;4998720;28;94659;-35
2023/06/27 04:54:06;;;;;;;11.68;7.57;;;15.70;99.90;;;;;;4998701;28;95383;-34
2023/06/27 04:56:33;;;;;;;13.32;7.20;;;16.00;99.90;;;;;;5002108;28;92850;-33
2023/06/27 04:58:59;;;;;;;8.63;6.55;;;16.20;99.90;;;;;;5000952;28;93988;-35
2023/06/27 05:01:24;;;;;;;9.50;6.00;;;16.40;99.90;;;;;;4997362;28;95661;-35
2023/06/27 05:03:50;;;;;;;12.63;7.10;;;16.60;99.90;;;;;;5008110;28;95725;-40
2023/06/27 05:06:16;;;;;;;8.75;7.20;;;16.80;99.90;;;;;;5014409;28;93892;-35
2023/06/27 05:08:41;;;;;;;8.45;6.32;;;17.00;99.90;;;;;;4997352;28;94666;-39
2023/06/27 05:11:07;;;;;;;10.82;7.50;;;17.30;99.90;;;;;;5001457;28;95363;-33
2023/06/27 05:13:32;;;;;;;12.65;6.82;;;17.30;99.90;;;;;;4998456;28;94126;-34
2023/06/27 05:15:58;;;;;;;11.27;6.90;;;17.50;99.90;;;;;;5011938;28;95084;-36
2023/06/27 05:18:26;;;;;;;8.60;5.70;;;17.50;99.90;;;;;;4998188;28;92963;-38
2023/06/27 05:20:53;;;;;;;12.77;7.43;;;17.90;99.90;;;;;;5013214;28;94912;-33
2023/06/27 05:23:20;;;;;;;8.07;7.13;;;18.00;99.90;;;;;;5017741;28;94206;-35
2023/06/27 05:25:46;;;;;;;9.70;6.60;;;18.40;99.90;;;;;;5001010;28;95097;-33
2023/06/27 05:28:12;;;;;;;7.68;5.93;;;18.60;99.90;;;;;;4997054;28;92239;-36
2023/06/27 05:30:38;;;;;;;17.60;7.28;;;18.80;99.90;;;;;;5000377;28;94803;-34
2023/06/27 05:33:04;;;;;;;7.40;6.70;;;18.70;99.90;;;;;;4999593;28;95670;-37
2023/06/27 05:35:30;;;;;;;7.97;6.35;;;18.70;99.90;;;;;;4998645;28;93581;-36
2023/06/27 05:37:56;;;;;;;8.38;6.88;;;19.10;99.90;;;;;;5018798;28;93306;-37
2023/06/27 05:40:22;;;;;;;11.18;7.18;;;19.00;99.90;;;;;;5017799;28;94655;-33
2023/06/27 05:42:49;;;;;;;9.02;6.03;;;19.50;99.90;;;;;;5018671;28;92152;-41
2023/06/27 05:45:14;;;;;;;11.68;6.15;;;19.60;99.90;;;;;;5018556;28;92084;-32
2023/06/27 05:47:42;;;;;;;10.90;6.13;;;19.70;99.90;;;;;;5018454;28;93770;-38
2023/06/27 05:50:09;;;;;;;8.07;5.82;;;20.10;99.90;;;;;;5016541;28;95652;-36
2023/06/27 05:52:34;;;;;;;10.32;6.15;;;20.30;99.90;;;;;;5016131;28;95924;-34
2023/06/27 05:55:00;;;;;;;7.03;5.15;;;20.60;99.90;;;;;;5016317;28;93915;-38
2023/06/27 05:57:25;;;;;;;11.63;4.47;;;20.70;99.90;;;;;;5016415;28;93794;-36
2023/06/27 05:59:51;;;;;;;7.72;4.88;;;20.90;99.90;;;;;;5014536;28;94820;-38
2023/06/27 06:02:17;;;;;;;14.02;4.10;;;21.00;99.90;;;;;;5015273;28;95122;-38
2023/06/27 06:04:43;;;;;;;4.70;4.20;;;21.10;99.90;;;;;;5015829;28;92508;-33
2023/06/27 06:07:09;;;;;;;5.18;3.97;;;21.20;99.90;;;;;;5013323;28;94111;-33
2023/06/27 06:09:34;;;;;;;5.72;3.42;;;21.60;99.90;;;;;;5015504;28;95745;-35
2023/06/27 06:12:00;;;;;;;5.40;3.28;;;21.80;99.90;;;;;;5004718;28;94341;-37
2023/06/27 06:14:25;;;;;;;8.77;3.47;;;21.90;99.90;;;;;;5015088;28;93105;-39
2023/06/27 06:16:51;;;;;;;3.58;2.58;;;22.10;99.90;;;;;;5016107;28;94608;-34
2023/06/27 06:19:17;;;;;;;2.78;2.53;;;22.10;99.90;;;;;;5015144;28;94411;-41
2023/06/27 06:21:42;;;;;;;6.55;3.20;;;22.50;99.90;;;;;;5015726;28;94102;-36
2023/06/27 06:24:08;;;;;;;6.15;2.95;;;22.70;99.90;;;;;;5015345;28;94294;-36
2023/06/27 06:26:35;;;;;;;5.28;2.63;;;22.90;99.90;;;;;;5015454;28;93672;-41
2023/06/27 06:29:01;;;;;;;3.65;2.58;;;22.90;99.90;;;;;;5014553;28;95175;-35
2023/06/27 06:31:27;;;;;;;7.53;2.90;;;23.20;99.90;;;;;;5015038;28;94869;-36
2023/06/27 06:33:53;;;;;;;2.88;2.50;;;23.10;99.90;;;;;;5015079;28;92865;-35
2023/06/27 06:36:19;;;;;;;9.23;2.90;;;23.40;99.90;;;;;;5014934;28;94228;-37
2023/06/27 06:38:45;;;;;;;3.50;2.72;;;23.10;99.90;;;;;;5014508;27;96430;-39
2023/06/27 06:41:10;;;;;;;7.95;3.55;;;23.50;99.90;;;;;;5015098;28;95510;-33
2023/06/27 06:43:36;;;;;;;2.85;2.50;;;23.50;99.90;;;;;;5014611;28;94754;-39
2023/06/27 06:46:02;;;;;;;2.22;1.83;;;23.60;99.90;;;;;;5015737;28;93275;-40
2023/06/27 06:48:27;;;;;;;3.33;2.50;;;23.80;99.90;;;;;;5014795;28;95505;-40
2023/06/27 06:50:53;;;;;;;3.45;1.92;;;23.80;97.30;;;;;;5015187;28;94446;-36
2023/06/27 06:53:20;;;;;;;3.78;2.30;;;23.70;98.90;;;;;;5015374;27;93651;-34
2023/06/27 06:55:46;;;;;;;3.47;3.10;;;24.00;99.90;;;;;;5015430;27;92359;-37
2023/06/27 06:58:12;;;;;;;4.07;2.95;;;24.20;99.90;;;;;;5015205;28;94858;-33
2023/06/27 07:00:37;;;;;;;4.72;1.98;;;23.90;99.90;;;;;;5015013;28;94954;-35
2023/06/27 07:03:04;;;;;;;3.15;2.10;;;24.30;94.70;;;;;;5014606;28;95697;-40
2023/06/27 07:05:30;;;;;;;1.60;1.50;;;24.40;84.70;;;;;;5014989;28;94587;-36
2023/06/27 07:07:56;;;;;;;4.45;2.00;;;24.60;90.20;;;;;;5014319;28;94268;-36
2023/06/27 07:10:21;;;;;;;4.55;1.63;;;24.40;90.50;;;;;;5014626;28;94453;-35
2023/06/27 07:12:47;;;;;;;2.22;1.40;;;24.70;86.60;;;;;;5013557;28;93572;-34
2023/06/27 07:15:14;;;;;;;25.17;3.47;;;24.80;82.10;;;;;;4996560;28;93994;-39
2023/06/27 07:17:39;;;;;;;4.38;1.88;;;25.10;79.70;;;;;;5014714;28;94666;-37
2023/06/27 07:20:07;;;;;;;3.70;1.90;;;24.90;69.80;;;;;;5015007;28;94220;-36
2023/06/27 07:22:32;;;;;;;6.00;1.45;;;24.60;70.90;;;;;;5015207;28;94075;-36
2023/06/27 07:24:58;;;;;;;4.60;1.55;;;25.00;71.20;;;;;;5015162;28;92714;-36
2023/06/27 07:27:23;;;;;;;4.05;1.70;;;24.50;68.20;;;;;;5013960;28;95680;-38
2023/06/27 07:29:49;;;;;;;4.35;1.25;;;24.70;71.10;;;;;;5014138;28;95889;-37
2023/06/27 07:32:15;;;;;;;4.38;1.48;;;24.90;70.60;;;;;;5014507;28;94384;-39
2023/06/27 07:34:40;;;;;;;6.60;2.08;;;24.70;66.70;;;;;;5015322;28;93823;-37
2023/06/27 07:37:07;;;;;;;8.00;1.80;;;24.90;67.90;;;;;;5011855;28;95450;-40
2023/06/27 07:39:32;;;;;;;4.45;1.73;;;24.80;66.70;;;;;;5012922;28;93789;-43
2023/06/27 07:41:58;;;;;;;4.90;1.73;;;24.50;66.60;;;;;;5015135;28;94114;-35
2023/06/27 07:44:25;;;;;;;2.90;1.88;;;24.50;67.30;;;;;;5014016;28;93350;-37
2023/06/27 07:46:50;;;;;;;5.57;1.77;;;24.50;67.90;;;;;;5014299;28;94743;-36
2023/06/27 07:49:16;;;;;;;3.55;1.23;;;24.60;68.20;;;;;;5012980;28;94239;-38
2023/06/27 07:51:42;;;;;;;2.70;1.48;;;24.50;67.50;;;;;;5013308;28;93112;-40
2023/06/27 07:54:09;;;;;;;2.80;1.88;;;24.30;65.20;;;;;;5014408;28;93353;-40
2023/06/27 07:56:35;;;;;;;4.80;1.20;;;24.20;68.30;;;;;;5013662;28;95616;-37
2023/06/27 07:59:03;;;;;;;1.98;1.13;;;24.70;68.20;;;;;;5013615;28;94580;-39
2023/06/27 08:01:29;;;;;;;4.53;1.33;;;24.80;66.10;;;;;;5013932;28;93120;-37
2023/06/27 08:03:54;;;;;;;3.03;1.45;;;24.70;62.20;;;;;;5014137;28;92467;-35
2023/06/27 08:06:20;;;;;;;5.95;1.70;;;24.70;65.10;;;;;;5013701;28;94681;-35
2023/06/27 08:08:45;;;;;;;9.90;1.65;;;24.70;65.50;;;;;;5014497;28;94255;-36
2023/06/27 08:11:11;;;;;;;3.70;1.13;;;24.70;65.70;;;;;;5013166;28;93613;-35
2023/06/27 08:13:41;;;;;;;2.75;1.42;;;25.10;65.70;;;;;;5014109;28;92460;-37
2023/06/27 08:16:08;;;;;;;5.95;2.03;;;25.10;65.50;;;;;;5013936;28;96260;-37
2023/06/27 08:18:34;;;;;;;3.93;1.40;;;25.20;65.10;;;;;;5013813;28;95472;-36
2023/06/27 08:20:59;;;;;;;12.80;2.25;;;24.80;63.70;;;;;;5014091;28;92301;-38
2023/06/27 08:23:26;;;;;;;5.03;1.17;;;24.80;65.50;;;;;;5014550;27;94670;-37
2023/06/27 08:25:53;;;;;;;5.80;2.27;;;24.90;65.30;;;;;;5017488;28;95189;-35
2023/06/27 08:28:18;;;;;;;3.05;1.40;;;24.50;64.10;;;;;;5017182;28;95062;-35
2023/06/27 08:30:44;;;;;;;3.72;1.23;;;24.30;64.00;;;;;;5017181;28;93336;-35
2023/06/27 08:33:09;;;;;;;2.50;1.35;;;24.10;64.70;;;;;;5017270;28;91435;-35
2023/06/27 08:35:36;;;;;;;7.88;1.83;;;24.00;66.10;;;;;;5016368;28;94952;-38
2023/06/27 08:38:01;;;;;;;3.60;1.67;;;23.80;66.10;;;;;;5017174;28;94428;-36
2023/06/27 08:40:27;;;;;;;4.40;1.30;;;23.40;66.00;;;;;;5016925;28;94667;-42
2023/06/27 08:42:52;;;;;;;3.53;0.95;;;23.10;66.40;;;;;;5017598;28;93869;-35
2023/06/27 08:45:21;;;;;;;3.15;1.70;;;22.80;67.70;;;;;;5016538;28;94560;-42
2023/06/27 08:47:49;;;;;;;6.60;1.42;;;22.80;67.20;;;;;;5001617;28;93380;-38
2023/06/27 08:50:15;;;;;;;3.28;1.20;;;22.70;67.20;;;;;;5016811;28;93207;-39
2023/06/27 08:52:44;;;;;;;2.35;1.05;;;22.80;67.30;;;;;;5016480;28;93607;-36
2023/06/27 08:55:25;;;;;;;4.65;1.65;;;22.80;68.00;;;;;;5015628;28;94778;-35
2023/06/27 08:57:53;;;;;;;1.95;1.13;;;23.40;67.10;;;;;;5016961;28;94190;-35
2023/06/27 09:00:22;;;;;;;4.03;1.15;;;23.70;65.90;;;;;;5016512;28;94863;-35
2023/06/27 09:02:49;;;;;;;2.75;1.00;;;23.70;61.90;;;;;;5016157;27;92310;-39
2023/06/27 09:05:15;;;;;;;3.13;1.15;;;23.80;62.90;;;;;;5015945;28;96046;-36
2023/06/27 09:07:42;;;;;;;2.25;0.90;;;24.00;61.60;;;;;;5017242;28;96556;-35
2023/06/27 09:10:09;;;;;;;2.30;1.17;;;24.30;61.20;;;;;;5016057;28;93044;-37
2023/06/27 09:12:37;;;;;;;1.48;1.05;;;24.30;60.10;;;;;;4997947;28;92957;-35
2023/06/27 09:15:03;;;;;;;2.85;1.58;;;24.50;60.80;;;;;;5016463;28;94646;-38
2023/06/27 09:17:29;;;;;;;3.85;1.08;;;24.50;62.50;;;;;;5016699;28;95522;-36
2023/06/27 09:19:55;;;;;;;2.15;1.08;;;24.90;61.30;;;;;;5016223;28;94312;-37
2023/06/27 09:22:23;;;;;;;5.95;2.55;;;25.00;59.60;;;;;;5016919;27;91471;-38
2023/06/27 09:24:49;;;;;;;2.00;1.20;;;25.10;60.40;;;;;;5017233;28;94728;-36
2023/06/27 09:27:31;;;;;;;2.50;1.20;;;25.20;59.60;;;;;;5015766;28;94497;-37
2023/06/27 09:30:03;;;;;;;2.05;1.38;;;25.00;58.50;;;;;;5015996;28;95136;-38
2023/06/27 09:32:29;;;;;;;2.75;0.90;;;25.00;59.80;;;;;;5010745;28;93980;-38
2023/06/27 09:34:55;;;;;;;3.80;1.10;;;24.80;58.20;;;;;;5014708;27;95145;-40
2023/06/27 09:37:28;;;;;;;0.93;0.70;;;24.80;59.90;;;;;;5015303;28;94385;-40
2023/06/27 09:39:54;;;;;;;1.33;1.08;;;24.70;59.30;;;;;;5016248;27;93050;-36
2023/06/27 09:42:20;;;;;;;3.42;1.00;;;24.90;59.20;;;;;;5015699;28;93347;-37
2023/06/27 09:44:45;;;;;;;3.58;1.35;;;25.30;59.40;;;;;;5015689;28;96126;-35
2023/06/27 09:47:11;;;;;;;1.23;0.95;;;25.10;57.50;;;;;;5015653;28;94487;-35
2023/06/27 09:49:41;;;;;;;4.32;1.15;;;24.60;59.40;;;;;;5016384;28;92152;-37
2023/06/27 09:52:08;;;;;;;2.10;0.70;;;24.60;58.70;;;;;;5015743;28;93889;-39
2023/06/27 09:54:42;;;;;;;9.60;1.40;;;24.50;58.80;;;;;;5014559;28;95380;-38
2023/06/27 09:57:16;;;;;;;2.88;0.88;;;24.70;59.70;;;;;;5016048;28;95108;-38
2023/06/27 09:59:42;;;;;;;2.50;1.02;;;24.90;59.70;;;;;;5015142;28;93549;-36
2023/06/27 10:02:12;;;;;;;1.25;1.05;;;24.80;60.00;;;;;;5016276;28;94839;-40
2023/06/27 10:04:38;;;;;;;1.27;0.90;;;24.90;59.80;;;;;;5014912;27;94329;-37
2023/06/27 10:07:03;;;;;;;3.78;1.38;;;25.10;59.90;;;;;;5015448;28;94689;-38
2023/06/27 10:09:29;;;;;;;4.60;1.45;;;25.00;59.10;;;;;;5014696;28;94790;-36
2023/06/27 10:11:55;;;;;;;2.13;1.00;;;25.20;59.80;;;;;;5016117;28;92501;-39
2023/06/27 10:14:21;;;;;;;3.47;1.42;;;24.90;59.00;;;;;;5015301;28;96050;-36
2023/06/27 10:16:48;;;;;;;2.83;1.13;;;24.60;59.50;;;;;;5016254;28;93797;-37
2023/06/27 10:19:15;;;;;;;6.25;1.20;;;24.60;59.30;;;;;;5014982;28;95665;-38
2023/06/27 10:21:41;;;;;;;3.33;0.90;;;24.40;57.60;;;;;;5015511;28;94499;-36
2023/06/27 10:24:09;;;;;;;3.70;1.38;;;24.20;59.00;;;;;;5015174;28;94853;-36
2023/06/27 10:26:35;;;;;;;3.42;1.70;;;24.10;60.00;;;;;;5015572;28;94095;-40
2023/06/27 10:29:13;;;;;;;1.33;0.90;;;24.10;61.20;;;;;;5015532;28;94393;-35
2023/06/27 10:31:49;;;;;;;3.05;1.33;;;24.30;61.20;;;;;;5016069;28;94638;-35
2023/06/27 10:34:24;;;;;;;3.75;1.35;;;24.30;61.90;;;;;;5002423;28;95973;-37
2023/06/27 10:36:49;;;;;;;5.80;0.77;;;24.20;61.40;;;;;;5015153;28;94627;-35
2023/06/27 10:39:29;;;;;;;1.85;0.98;;;24.20;60.90;;;;;;5015688;28;93915;-33
2023/06/27 10:42:06;;;;;;;7.63;1.50;;;24.30;60.50;;;;;;5014411;28;92934;-36
2023/06/27 10:44:35;;;;;;;3.58;1.60;;;24.00;61.10;;;;;;5014790;28;95752;-42
2023/06/27 10:47:16;;;;;;;3.63;1.48;;;24.00;61.80;;;;;;5014507;28;95264;-40
2023/06/27 10:49:46;;;;;;;3.63;1.27;;;23.90;61.70;;;;;;5015072;28;93549;-38
2023/06/27 10:52:20;;;;;;;2.90;1.23;;;24.10;62.60;;;;;;5014751;27;92357;-37
2023/06/27 10:54:48;;;;;;;10.63;2.25;;;24.40;62.20;;;;;;5014940;28;95129;-40
2023/06/27 10:57:16;;;;;;;1.85;1.38;;;24.50;63.00;;;;;;5014589;28;94462;-39
2023/06/27 10:59:45;;;;;;;2.78;1.45;;;24.20;62.20;;;;;;5014854;28;94665;-39
2023/06/27 11:02:12;;;;;;;2.83;1.40;;;23.90;63.80;;;;;;5014710;28;92616;-40
2023/06/27 11:04:41;;;;;;;1.93;1.10;;;24.00;63.50;;;;;;5014847;28;94936;-37
2023/06/27 11:07:17;;;;;;;5.28;1.45;;;23.90;63.60;;;;;;5014336;28;92843;-40
2023/06/27 11:09:53;;;;;;;2.97;1.25;;;24.10;63.70;;;;;;5015135;27;94202;-36
2023/06/27 11:12:21;;;;;;;10.95;4.57;;;24.30;64.50;;;;;;5014212;28;93247;-39
2023/06/27 11:14:48;;;;;;;20.27;8.55;;;24.30;64.40;;;;;;5014063;27;94212;-33
2023/06/27 11:17:17;;;;;;;4.73;1.57;;;24.30;63.00;;;;;;5014741;28;95121;-34
2023/06/27 11:19:43;;;;;;;2.28;1.67;;;24.50;62.80;;;;;;5015236;28;94226;-38
2023/06/27 11:22:09;;;;;;;2.75;1.15;;;24.50;63.10;;;;;;5013917;28;94401;-36
2023/06/27 11:24:35;;;;;;;1.48;1.13;;;24.60;62.80;;;;;;5014058;28;94748;-38
2023/06/27 11:27:06;;;;;;;2.15;1.00;;;24.50;62.00;;;;;;5015122;28;94785;-34
2023/06/27 11:29:33;;;;;;;6.88;1.17;;;24.50;62.40;;;;;;5014634;28;92178;-36
2023/06/27 11:31:59;;;;;;;2.00;0.98;;;24.40;61.30;;;;;;5015154;28;93588;-35
2023/06/27 11:34:27;;;;;;;1.95;1.33;;;24.30;60.60;;;;;;5013324;28;95488;-34
2023/06/27 11:36:54;;;;;;;1.27;1.10;;;24.30;60.70;;;;;;5013804;28;95721;-36
2023/06/27 11:39:20;;;;;;;3.42;0.90;;;24.20;60.20;;;;;;5014889;28;93166;-38
2023/06/27 11:41:46;;;;;;;1.77;1.00;;;24.00;61.90;;;;;;5013818;28;94392;-34
2023/06/27 11:44:13;;;;;;;1.73;0.82;;;23.80;61.90;;;;;;5013956;28;94362;-36
2023/06/27 11:46:53;;;;;;;1.85;0.68;;;23.90;62.00;;;;;;5014122;28;94213;-35
2023/06/27 11:49:25;;;;;;;4.05;1.38;;;23.80;61.80;;;;;;5015086;28;95048;-40
2023/06/27 11:51:56;;;;;;;2.60;1.80;;;23.70;62.00;;;;;;5014706;28;92666;-37
2023/06/27 11:54:22;;;;;;;7.85;1.92;;;23.50;63.90;;;;;;5013679;28;95963;-35
2023/06/27 11:56:47;;;;;;;3.45;1.45;;;23.70;63.70;;;;;;5014328;28;94332;-36
2023/06/27 11:59:14;;;;;;;5.30;1.15;;;23.50;63.10;;;;;;5013340;28;94942;-40
2023/06/27 12:01:41;;;;;;;4.93;1.15;;;23.50;62.10;;;;;;5014276;28;94728;-36
2023/06/27 12:04:14;;;;;;;4.07;1.25;;;23.50;62.30;;;;;;5014126;28;95311;-40
2023/06/27 12:06:42;;;;;;;6.18;1.42;;;23.70;62.70;;;;;;5000676;28;94911;-38
2023/06/27 12:09:18;;;;;;;3.63;1.40;;;23.80;63.20;;;;;;5013581;27;93309;-37
2023/06/27 12:11:43;;;;;;;4.05;1.25;;;23.80;63.80;;;;;;5014583;28;94391;-41
2023/06/27 12:14:09;;;;;;;3.10;0.98;;;23.80;63.20;;;;;;5013182;28;95395;-36
2023/06/27 12:16:35;;;;;;;5.03;1.40;;;23.70;63.50;;;;;;5001114;28;94150;-33
2023/06/27 12:19:10;;;;;;;4.50;1.85;;;23.50;63.00;;;;;;5014515;27;94828;-38
2023/06/27 12:21:36;;;;;;;3.15;1.42;;;23.40;64.20;;;;;;5013516;28;93155;-38
2023/06/27 12:24:03;;;;;;;5.13;1.30;;;23.40;64.70;;;;;;5008748;28;95718;-33
2023/06/27 12:26:28;;;;;;;1.40;1.23;;;23.10;65.90;;;;;;5001961;28;95489;-39
2023/06/27 12:28:59;;;;;;;10.18;1.40;;;22.80;66.30;;;;;;5013821;28;93665;-35
2023/06/27 12:31:25;;;;;;;10.23;1.30;;;22.90;66.70;;;;;;4994189;28;95044;-40
2023/06/27 12:33:52;;;;;;;1.92;1.25;;;22.80;66.40;;;;;;5013253;28;95195;-34
2023/06/27 12:36:19;;;;;;;1.63;1.10;;;22.70;66.30;;;;;;5012407;28;94759;-40
2023/06/27 12:38:45;;;;;;;4.20;1.15;;;22.60;67.60;;;;;;5013164;28;94109;-39
2023/06/27 12:41:11;;;;;;;2.33;1.00;;;22.60;67.60;;;;;;4995400;28;94106;-33
2023/06/27 12:43:36;;;;;;;2.78;1.02;;;22.50;67.80;;;;;;5012749;28;94454;-36